createdAt,value
2023-03-31T00:02:13.791Z,95963.22
2023-03-31T00:04:52.623Z,95931.59
2023-03-31T00:07:24.838Z,95990.09
2023-03-31T00:10:03.997Z,95928.81
2023-03-31T00:12:35.798Z,95965.84
2023-03-31T00:15:05.054Z,95967.16
2023-03-31T00:17:34.356Z,95952.56
2023-03-31T00:20:05.842Z,95923.91
2023-03-31T00:22:34.050Z,95908.19
2023-03-31T00:25:02.233Z,95874.44
2023-03-31T00:27:30.417Z,95924.09
2023-03-31T00:29:58.608Z,95918.34
2023-03-31T00:32:26.885Z,95917.69
2023-03-31T00:34:55.145Z,95887.25
2023-03-31T00:37:24.925Z,95897.69
2023-03-31T00:39:53.139Z,95912.28
2023-03-31T00:42:21.400Z,95935.72
2023-03-31T00:45:28.276Z,95900.16
2023-03-31T00:48:04.302Z,95917.38
2023-03-31T00:50:37.213Z,95886.22
2023-03-31T00:53:12.909Z,95877.88
2023-03-31T00:55:45.315Z,95856.44
2023-03-31T00:58:20.148Z,95826.69
2023-03-31T01:00:51.328Z,95855.59
2023-03-31T01:03:22.617Z,95824.97
2023-03-31T01:05:53.432Z,95908.84
2023-03-31T01:08:27.898Z,95868.03
2023-03-31T01:10:59.768Z,95777.34
2023-03-31T01:13:28.415Z,95775.19
2023-03-31T01:15:56.959Z,95861.81
2023-03-31T01:18:29.147Z,95224.75
2023-03-31T01:21:42.730Z,95808.75
2023-03-31T01:25:01.485Z,95767.81
2023-03-31T01:27:48.968Z,95813.50
2023-03-31T01:30:59.014Z,95769.63
2023-03-31T01:34:23.163Z,95817.28
2023-03-31T01:37:43.570Z,95822.88
2023-03-31T01:40:41.952Z,95855.59
2023-03-31T01:43:16.128Z,95812.84
2023-03-31T01:45:55.506Z,95806.78
2023-03-31T01:48:36.783Z,95823.34
2023-03-31T01:51:09.480Z,95802.06
2023-03-31T01:53:46.530Z,95760.28
2023-03-31T01:56:22.508Z,95804.81
2023-03-31T01:58:55.955Z,95861.22
2023-03-31T02:01:31.474Z,95768.28
2023-03-31T02:04:04.627Z,95736.16
2023-03-31T02:06:40.813Z,95749.78
2023-03-31T02:09:14.942Z,95743.41
2023-03-31T02:11:45.994Z,95777.25
2023-03-31T02:14:21.919Z,95786.09
2023-03-31T02:16:58.348Z,95774.63
2023-03-31T02:19:33.344Z,95751.56
2023-03-31T02:22:03.574Z,95748.28
2023-03-31T02:24:33.716Z,95747.22
2023-03-31T02:27:10.364Z,95744.25
2023-03-31T02:29:39.632Z,95731.72
2023-03-31T02:32:16.317Z,95741.66
2023-03-31T02:34:44.534Z,95743.25
2023-03-31T02:37:13.597Z,95710.47
2023-03-31T02:39:47.757Z,95778.47
2023-03-31T02:42:17.612Z,95786.28
2023-03-31T02:44:49.750Z,95736.09
2023-03-31T02:47:20.645Z,95717.56
2023-03-31T02:49:52.389Z,95698.31
2023-03-31T02:52:37.984Z,95714.16
2023-03-31T02:55:21.400Z,95780.91
2023-03-31T02:58:29.382Z,95734.06
2023-03-31T03:01:17.244Z,95724.75
2023-03-31T03:04:00.002Z,95713.31
2023-03-31T03:06:40.614Z,95691.41
2023-03-31T03:09:35.645Z,95704.53
2023-03-31T03:12:13.610Z,95695.28
2023-03-31T03:14:49.619Z,95663.75
2023-03-31T03:17:24.857Z,95666.28
2023-03-31T03:19:55.666Z,95662.34
2023-03-31T03:22:24.628Z,95660.88
2023-03-31T03:24:53.509Z,95644.25
2023-03-31T03:27:23.238Z,95648.28
2023-03-31T03:29:53.079Z,95612.94
2023-03-31T03:32:21.288Z,95655.34
2023-03-31T03:34:49.596Z,95639.09
2023-03-31T03:37:17.869Z,95661.50
2023-03-31T03:39:46.077Z,95629.06
2023-03-31T03:42:14.255Z,95643.41
2023-03-31T03:44:42.561Z,95610.53
2023-03-31T03:47:12.232Z,95571.31
2023-03-31T03:49:40.427Z,95616.94
2023-03-31T03:52:09.012Z,95528.00
2023-03-31T03:54:37.333Z,95570.84
2023-03-31T03:57:06.749Z,95554.25
2023-03-31T03:59:34.952Z,95540.53
2023-03-31T04:02:03.232Z,95582.97
2023-03-31T04:04:37.216Z,95489.25
2023-03-31T04:07:06.711Z,95537.50
2023-03-31T04:09:34.929Z,95532.81
2023-03-31T04:12:03.125Z,95460.03
2023-03-31T04:14:31.391Z,95506.38
2023-03-31T04:16:59.808Z,95504.09
2023-03-31T04:19:28.161Z,95525.13
2023-03-31T04:22:02.715Z,95530.38
2023-03-31T04:24:32.820Z,95507.53
2023-03-31T04:27:03.192Z,95511.63
2023-03-31T04:29:33.709Z,95518.97
2023-03-31T04:32:02.897Z,95500.78
2023-03-31T04:34:35.986Z,95483.31
2023-03-31T04:37:06.149Z,95496.88
2023-03-31T04:39:34.347Z,95490.19
2023-03-31T04:42:03.079Z,95441.75
2023-03-31T04:44:31.433Z,95499.22
2023-03-31T04:47:03.041Z,95484.22
2023-03-31T04:49:33.562Z,95432.44
2023-03-31T04:52:02.207Z,95490.28
2023-03-31T04:54:32.112Z,95465.19
2023-03-31T04:57:00.911Z,95417.22
2023-03-31T04:59:29.178Z,95477.06
2023-03-31T05:01:57.535Z,95395.41
2023-03-31T05:04:26.515Z,95472.91
2023-03-31T05:06:55.146Z,95416.78
2023-03-31T05:09:23.627Z,95479.88
2023-03-31T05:11:53.379Z,95415.59
2023-03-31T05:14:21.909Z,95396.44
2023-03-31T05:16:50.384Z,95368.34
2023-03-31T05:19:18.878Z,95397.28
2023-03-31T05:21:47.350Z,95464.47
2023-03-31T05:24:15.781Z,95362.06
2023-03-31T05:26:48.431Z,95360.66
2023-03-31T05:29:18.013Z,95407.34
2023-03-31T05:31:46.820Z,95377.19
2023-03-31T05:34:15.228Z,95380.38
2023-03-31T05:36:43.501Z,95412.69
2023-03-31T05:39:11.898Z,95390.94
2023-03-31T05:41:40.156Z,95426.63
2023-03-31T05:44:08.465Z,95367.69
2023-03-31T05:46:38.483Z,95380.16
2023-03-31T05:49:07.372Z,95400.78
2023-03-31T05:51:35.857Z,95328.81
2023-03-31T05:54:04.222Z,95403.81
2023-03-31T05:56:32.409Z,95402.19
2023-03-31T05:59:01.447Z,95443.69
2023-03-31T06:01:30.321Z,95419.50
2023-03-31T06:04:01.233Z,95420.41
2023-03-31T06:06:55.958Z,95401.69
2023-03-31T06:09:24.103Z,95402.75
2023-03-31T06:11:52.858Z,95419.75
2023-03-31T06:14:21.071Z,95439.75
2023-03-31T06:16:49.411Z,95429.78
2023-03-31T06:19:19.248Z,95449.78
2023-03-31T06:21:47.492Z,95421.28
2023-03-31T06:24:15.819Z,95393.53
2023-03-31T06:26:44.026Z,95441.38
2023-03-31T06:29:12.251Z,95398.47
2023-03-31T06:31:40.514Z,95392.88
2023-03-31T06:34:08.760Z,95434.69
2023-03-31T06:36:38.361Z,95311.47
2023-03-31T06:39:06.976Z,95401.31
2023-03-31T06:41:35.306Z,95400.84
2023-03-31T06:44:03.515Z,95369.91
2023-03-31T06:46:31.874Z,95315.72
2023-03-31T06:49:00.148Z,95369.03
2023-03-31T06:51:29.714Z,95328.91
2023-03-31T06:54:00.639Z,95389.00
2023-03-31T06:56:29.145Z,95334.53
2023-03-31T06:58:57.413Z,95313.53
2023-03-31T07:01:25.658Z,95331.41
2023-03-31T07:03:53.834Z,95309.81
2023-03-31T07:06:22.837Z,95317.13
2023-03-31T07:08:51.284Z,95311.81
2023-03-31T07:11:21.217Z,95290.25
2023-03-31T07:13:49.549Z,95305.63
2023-03-31T07:16:17.800Z,95322.72
2023-03-31T07:18:46.445Z,95257.38
2023-03-31T07:21:15.154Z,95264.81
2023-03-31T07:23:43.449Z,95285.00
2023-03-31T07:26:12.655Z,95357.09
2023-03-31T07:28:42.351Z,95325.22
2023-03-31T07:31:16.396Z,95363.94
2023-03-31T07:33:45.180Z,95344.19
2023-03-31T07:36:14.346Z,95300.41
2023-03-31T07:38:44.693Z,95342.84
2023-03-31T07:41:15.221Z,95415.38
2023-03-31T07:43:45.534Z,95323.13
2023-03-31T07:46:19.852Z,95358.94
2023-03-31T07:48:49.684Z,95383.59
2023-03-31T07:51:20.425Z,95359.34
2023-03-31T07:53:52.165Z,95375.81
2023-03-31T07:56:21.762Z,95309.94
2023-03-31T07:58:54.445Z,95291.13
2023-03-31T08:01:28.858Z,95094.00
2023-03-31T08:04:01.014Z,95160.56
2023-03-31T08:06:30.048Z,95179.19
2023-03-31T08:08:59.359Z,95202.16
2023-03-31T08:11:27.786Z,95245.16
2023-03-31T08:13:57.566Z,95195.56
2023-03-31T08:16:25.938Z,95273.63
2023-03-31T08:18:54.322Z,95178.63
2023-03-31T08:21:24.538Z,95243.41
2023-03-31T08:23:55.867Z,95234.97
2023-03-31T08:26:25.604Z,95249.94
2023-03-31T08:28:54.496Z,95275.59
2023-03-31T08:31:27.464Z,95237.56
2023-03-31T08:33:57.295Z,95249.34
2023-03-31T08:36:27.240Z,95235.00
2023-03-31T08:38:56.006Z,95262.25
2023-03-31T08:41:44.043Z,95200.53
2023-03-31T08:44:17.883Z,95239.00
2023-03-31T08:46:48.997Z,95177.38
2023-03-31T08:49:21.324Z,95249.78
2023-03-31T08:51:53.599Z,95220.28
2023-03-31T08:54:33.190Z,95198.13
2023-03-31T08:57:03.336Z,95149.00
2023-03-31T08:59:35.168Z,95191.25
2023-03-31T09:02:18.941Z,95212.75
2023-03-31T09:05:20.056Z,95212.25
2023-03-31T09:08:01.298Z,95191.81
2023-03-31T09:10:41.223Z,95197.34
2023-03-31T09:13:38.025Z,95173.66
2023-03-31T09:16:16.511Z,95206.06
2023-03-31T09:18:47.694Z,95150.97
2023-03-31T09:21:27.169Z,95189.91
2023-03-31T09:24:02.941Z,95151.38
2023-03-31T09:26:40.259Z,95093.44
2023-03-31T09:29:18.666Z,95152.94
2023-03-31T09:31:48.597Z,95110.13
2023-03-31T09:34:33.262Z,95163.16
2023-03-31T09:37:02.035Z,95167.00
2023-03-31T09:39:31.208Z,95023.25
2023-03-31T09:42:00.749Z,95144.31
2023-03-31T09:44:38.007Z,95162.06
2023-03-31T09:47:11.284Z,95138.09
2023-03-31T09:49:54.181Z,95190.91
2023-03-31T09:52:31.558Z,95123.34
2023-03-31T09:55:03.250Z,95165.75
2023-03-31T09:57:34.614Z,95096.19
2023-03-31T10:00:17.641Z,95107.31
2023-03-31T10:02:50.377Z,95156.28
2023-03-31T10:05:32.894Z,95092.94
2023-03-31T10:08:28.401Z,95149.34
2023-03-31T10:11:09.027Z,95204.91
2023-03-31T10:13:47.714Z,95119.72
2023-03-31T10:16:23.158Z,95200.91
2023-03-31T10:18:51.412Z,95217.47
2023-03-31T10:21:27.090Z,95106.41
2023-03-31T10:23:56.275Z,95146.47
2023-03-31T10:26:28.902Z,95180.56
2023-03-31T10:28:57.679Z,95142.81
2023-03-31T10:31:29.130Z,95081.03
2023-03-31T10:33:58.640Z,95075.31
2023-03-31T10:36:31.850Z,95089.16
2023-03-31T10:39:00.455Z,95070.47
2023-03-31T10:41:31.322Z,95013.50
2023-03-31T10:44:02.287Z,95122.28
2023-03-31T10:46:48.246Z,95076.84
2023-03-31T10:49:22.135Z,95189.59
2023-03-31T10:51:55.147Z,95112.50
2023-03-31T10:54:23.658Z,95076.41
2023-03-31T10:56:55.075Z,95089.59
2023-03-31T10:59:51.992Z,95079.25
2023-03-31T11:02:48.464Z,95079.84
2023-03-31T11:05:23.308Z,95118.34
2023-03-31T11:08:14.345Z,95158.69
2023-03-31T11:11:14.191Z,95167.13
2023-03-31T11:13:49.918Z,95143.22
2023-03-31T11:16:27.301Z,95148.31
2023-03-31T11:19:10.792Z,95036.97
2023-03-31T11:21:51.141Z,95250.69
2023-03-31T11:24:34.941Z,95055.69
2023-03-31T11:27:21.139Z,95101.78
2023-03-31T11:29:57.972Z,95068.75
2023-03-31T11:32:43.461Z,95086.19
2023-03-31T11:35:30.931Z,95058.00
2023-03-31T11:38:24.056Z,95047.66
2023-03-31T11:41:02.034Z,95055.50
2023-03-31T11:43:36.222Z,95070.22
2023-03-31T11:46:10.188Z,95042.50
2023-03-31T11:48:45.940Z,95073.19
2023-03-31T11:51:19.446Z,95004.47
2023-03-31T11:53:49.491Z,95080.66
2023-03-31T11:56:21.558Z,95026.16
2023-03-31T11:58:56.116Z,95022.41
2023-03-31T12:01:34.915Z,94998.28
2023-03-31T12:04:08.216Z,95036.50
2023-03-31T12:06:42.574Z,95062.34
2023-03-31T12:09:21.077Z,95123.88
2023-03-31T12:11:58.557Z,95216.22
2023-03-31T12:14:34.145Z,95150.16
2023-03-31T12:17:11.557Z,95186.34
2023-03-31T12:19:49.462Z,95134.81
2023-03-31T12:22:23.839Z,95173.50
2023-03-31T12:24:53.378Z,95204.63
2023-03-31T12:27:28.133Z,95145.28
2023-03-31T12:29:59.914Z,95107.91
2023-03-31T12:32:32.383Z,95219.22
2023-03-31T12:35:08.132Z,95137.16
2023-03-31T12:38:16.461Z,95087.13
2023-03-31T12:40:58.880Z,95131.06
2023-03-31T12:44:00.710Z,95129.50
2023-03-31T12:46:49.558Z,95092.34
2023-03-31T12:49:34.211Z,95133.69
2023-03-31T12:52:07.718Z,95114.47
2023-03-31T12:55:22.519Z,95113.88
2023-03-31T12:57:50.702Z,95116.53
2023-03-31T13:00:30.181Z,95108.06
2023-03-31T13:03:41.349Z,95127.66
2023-03-31T13:06:12.815Z,95075.19
2023-03-31T13:08:56.834Z,95082.56
2023-03-31T13:11:39.047Z,95072.59
2023-03-31T13:14:14.907Z,95100.91
2023-03-31T13:16:45.058Z,95073.94
2023-03-31T13:19:28.239Z,95054.56
2023-03-31T13:21:58.619Z,95021.06
2023-03-31T13:24:28.646Z,95028.69
2023-03-31T13:26:59.158Z,95074.16
2023-03-31T13:29:41.022Z,95088.25
2023-03-31T13:32:26.794Z,95065.09
2023-03-31T13:35:02.562Z,95026.84
2023-03-31T13:38:10.433Z,95045.81
2023-03-31T13:41:06.723Z,95015.97
2023-03-31T13:44:29.456Z,95055.81
2023-03-31T13:47:43.750Z,95043.66
2023-03-31T13:50:40.942Z,94971.59
2023-03-31T13:53:34.138Z,94983.56
2023-03-31T13:56:45.500Z,94999.41
2023-03-31T13:59:41.874Z,95080.09
2023-03-31T14:02:47.095Z,95095.13
2023-03-31T14:05:35.462Z,95025.53
2023-03-31T14:08:11.944Z,95118.06
2023-03-31T14:10:42.939Z,94943.25
2023-03-31T14:13:16.361Z,95009.72
2023-03-31T14:15:51.634Z,95027.63
2023-03-31T14:18:27.909Z,95031.13
2023-03-31T14:21:13.493Z,95009.19
2023-03-31T14:23:54.729Z,95020.31
2023-03-31T14:26:46.756Z,95014.94
2023-03-31T14:29:22.563Z,94991.69
2023-03-31T14:32:00.285Z,95005.47
2023-03-31T14:34:58.097Z,94979.19
2023-03-31T14:37:28.188Z,95028.47
2023-03-31T14:39:58.919Z,95044.88
2023-03-31T14:42:31.628Z,94982.97
2023-03-31T14:45:06.183Z,94993.94
2023-03-31T14:47:34.462Z,95017.03
2023-03-31T14:50:09.984Z,95002.84
2023-03-31T14:52:38.145Z,95016.63
2023-03-31T14:55:07.816Z,95045.13
2023-03-31T14:57:39.494Z,95048.91
2023-03-31T15:00:13.960Z,94965.13
2023-03-31T15:02:44.580Z,94986.72
2023-03-31T15:05:27.253Z,94981.44
2023-03-31T15:07:59.309Z,94977.59
2023-03-31T15:10:34.221Z,95037.78
2023-03-31T15:13:09.501Z,94931.66
2023-03-31T15:15:37.671Z,94993.28
2023-03-31T15:18:07.795Z,95010.75
2023-03-31T15:20:42.605Z,95007.53
2023-03-31T15:23:24.720Z,94957.41
2023-03-31T15:25:59.234Z,94938.81
2023-03-31T15:28:31.305Z,95017.69
2023-03-31T15:31:09.524Z,94994.56
2023-03-31T15:33:41.737Z,95018.41
2023-03-31T15:36:13.560Z,95021.34
2023-03-31T15:38:42.297Z,95018.84
2023-03-31T15:41:14.098Z,95001.41
2023-03-31T15:43:50.570Z,95003.00
2023-03-31T15:46:25.714Z,95048.25
2023-03-31T15:48:56.040Z,94976.00
2023-03-31T15:51:32.720Z,95003.66
2023-03-31T15:54:00.958Z,95019.19
2023-03-31T15:56:34.922Z,95014.38
2023-03-31T15:59:06.872Z,95110.13
2023-03-31T16:04:59.716Z,95019.22
2023-03-31T16:07:34.362Z,94996.97
2023-03-31T16:10:06.818Z,95001.50
2023-03-31T16:12:38.403Z,94980.06
2023-03-31T16:15:13.961Z,95009.59
2023-03-31T16:17:48.332Z,94978.44
2023-03-31T16:20:21.903Z,94985.75
2023-03-31T16:22:56.405Z,94980.47
2023-03-31T16:25:27.653Z,95006.81
2023-03-31T16:27:58.630Z,95026.84
2023-03-31T16:30:37.260Z,95007.22
2023-03-31T16:33:08.560Z,95026.66
2023-03-31T16:35:39.748Z,95001.97
2023-03-31T16:38:12.564Z,94971.78
2023-03-31T16:40:43.091Z,94965.94
2023-03-31T16:43:15.398Z,94984.34
2023-03-31T16:45:47.683Z,95004.56
2023-03-31T16:48:17.827Z,95050.50
2023-03-31T16:50:47.653Z,95040.41
2023-03-31T16:53:22.158Z,95021.75
2023-03-31T16:55:51.186Z,94998.88
2023-03-31T16:58:28.399Z,95001.53
2023-03-31T17:00:57.523Z,95033.72
2023-03-31T17:03:26.102Z,95033.91
2023-03-31T17:05:59.037Z,95061.63
2023-03-31T17:08:29.277Z,95052.53
2023-03-31T17:11:02.449Z,95018.94
2023-03-31T17:13:32.435Z,95043.19
2023-03-31T17:16:08.720Z,95041.38
2023-03-31T17:18:45.563Z,95009.59
2023-03-31T17:21:16.566Z,94987.06
2023-03-31T17:23:47.464Z,95035.47
2023-03-31T17:26:17.722Z,95027.41
2023-03-31T17:28:46.102Z,95093.75
2023-03-31T17:31:15.523Z,95024.94
2023-03-31T17:33:44.420Z,94901.81
2023-03-31T17:36:13.457Z,95074.50
2023-03-31T17:38:41.871Z,95073.78
2023-03-31T17:41:14.142Z,95055.19
2023-03-31T17:43:46.106Z,95016.28
2023-03-31T17:46:15.510Z,95060.44
2023-03-31T17:48:44.751Z,94982.63
2023-03-31T17:51:15.426Z,95179.56
2023-03-31T17:53:44.943Z,95038.56
2023-03-31T17:56:16.062Z,95025.66
2023-03-31T17:58:44.500Z,95058.00
2023-03-31T18:01:13.901Z,95074.94
2023-03-31T18:04:02.159Z,95078.72
2023-03-31T18:06:31.834Z,95093.09
2023-03-31T18:09:00.108Z,95048.66
2023-03-31T18:11:31.095Z,95081.94
2023-03-31T18:14:01.866Z,95107.78
2023-03-31T18:16:30.766Z,95096.88
2023-03-31T18:18:59.383Z,95200.44
2023-03-31T18:21:27.592Z,95115.97
2023-03-31T18:23:56.497Z,95115.38
2023-03-31T18:26:27.133Z,95143.28
2023-03-31T18:28:56.712Z,95107.59
2023-03-31T18:31:26.865Z,95116.78
2023-03-31T18:33:55.436Z,95111.88
2023-03-31T18:36:24.354Z,95143.72
2023-03-31T18:38:53.332Z,95202.44
2023-03-31T18:41:21.691Z,95201.47
2023-03-31T18:43:52.145Z,95191.19
2023-03-31T18:46:21.813Z,95194.06
2023-03-31T18:48:50.229Z,95159.47
2023-03-31T18:51:18.618Z,95195.59
2023-03-31T18:53:46.798Z,95174.09
2023-03-31T18:56:15.032Z,95147.56
2023-03-31T18:58:43.943Z,95174.72
2023-03-31T19:01:12.276Z,95166.91
2023-03-31T19:03:42.455Z,95120.75
2023-03-31T19:06:11.246Z,95148.47
2023-03-31T19:08:40.657Z,95137.19
2023-03-31T19:11:11.529Z,95116.59
2023-03-31T19:13:41.980Z,95061.53
2023-03-31T19:16:11.009Z,95152.59
2023-03-31T19:18:43.152Z,95172.28
2023-03-31T19:21:11.906Z,95142.78
2023-03-31T19:23:40.566Z,95150.34
2023-03-31T19:26:09.127Z,95144.66
2023-03-31T19:28:37.365Z,95118.94
2023-03-31T19:31:06.048Z,95144.66
2023-03-31T19:33:34.584Z,95024.19
2023-03-31T19:36:04.147Z,95114.88
2023-03-31T19:38:36.634Z,95098.53
2023-03-31T19:41:06.521Z,95138.53
2023-03-31T19:43:35.454Z,95135.28
2023-03-31T19:46:04.153Z,95161.47
2023-03-31T19:48:33.879Z,95140.50
2023-03-31T19:51:05.828Z,95135.66
2023-03-31T19:53:34.517Z,95127.69
2023-03-31T19:56:06.031Z,95120.13
2023-03-31T19:58:35.925Z,95084.22
2023-03-31T20:01:07.267Z,95121.19
2023-03-31T20:03:37.852Z,95136.25
2023-03-31T20:06:11.320Z,95109.09
2023-03-31T20:08:42.528Z,95123.88
2023-03-31T20:11:13.802Z,95072.72
2023-03-31T20:13:44.191Z,95150.34
2023-03-31T20:16:14.728Z,95115.16
2023-03-31T20:18:47.918Z,95064.88
2023-03-31T20:21:20.625Z,95139.44
2023-03-31T20:23:49.608Z,95137.06
2023-03-31T20:26:20.718Z,95066.13
2023-03-31T20:28:56.038Z,95123.59
2023-03-31T20:31:27.432Z,95165.69
2023-03-31T20:33:57.652Z,95098.13
2023-03-31T20:36:31.792Z,95127.94
2023-03-31T20:39:05.559Z,95155.03
2023-03-31T20:41:37.331Z,95141.03
2023-03-31T20:44:11.921Z,95064.63
2023-03-31T20:46:43.268Z,95129.56
2023-03-31T20:49:12.734Z,95149.34
2023-03-31T20:51:42.734Z,95148.06
2023-03-31T20:54:11.920Z,95120.16
2023-03-31T20:56:45.030Z,95192.09
2023-03-31T20:59:15.885Z,95200.13
2023-03-31T21:01:47.137Z,95169.75
2023-03-31T21:04:16.920Z,95238.78
2023-03-31T21:06:48.380Z,95143.03
2023-03-31T21:09:17.604Z,95221.63
2023-03-31T21:11:45.983Z,95104.41
2023-03-31T21:14:15.823Z,95159.19
2023-03-31T21:16:44.209Z,95138.16
2023-03-31T21:19:12.914Z,95117.69
2023-03-31T21:21:43.155Z,95155.16
2023-03-31T21:24:13.965Z,95142.31
2023-03-31T21:26:42.321Z,95141.75
2023-03-31T21:29:11.133Z,95114.06
2023-03-31T21:31:41.474Z,95112.13
2023-03-31T21:34:10.857Z,95110.06
2023-03-31T21:36:39.138Z,95141.06
2023-03-31T21:39:09.533Z,95131.84
2023-03-31T21:41:40.416Z,95137.63
2023-03-31T21:44:09.049Z,95139.44
2023-03-31T21:46:37.457Z,95139.53
2023-03-31T21:49:06.234Z,95163.53
2023-03-31T21:51:34.524Z,95112.34
2023-03-31T21:54:02.803Z,95134.13
2023-03-31T21:56:31.829Z,95078.66
2023-03-31T21:59:04.130Z,95126.78
2023-03-31T22:01:32.447Z,95135.44
2023-03-31T22:04:06.190Z,95156.66
2023-03-31T22:06:35.878Z,95118.84
2023-03-31T22:09:04.330Z,95145.94
2023-03-31T22:11:32.818Z,95154.25
2023-03-31T22:14:02.596Z,95110.88
2023-03-31T22:16:30.807Z,95145.56
2023-03-31T22:19:00.084Z,95150.69
2023-03-31T22:21:41.505Z,95127.13
2023-03-31T22:24:13.427Z,95142.84
2023-03-31T22:26:41.633Z,95114.16
2023-03-31T22:29:15.864Z,95130.47
2023-03-31T22:31:44.586Z,95100.59
2023-03-31T22:34:12.768Z,95136.09
2023-03-31T22:36:40.944Z,95106.06
2023-03-31T22:39:10.276Z,95141.31
2023-03-31T22:41:38.486Z,95189.84
2023-03-31T22:44:06.693Z,95088.41
2023-03-31T22:46:36.988Z,95024.81
2023-03-31T22:49:05.658Z,95136.34
2023-03-31T22:51:34.576Z,95137.81
2023-03-31T22:54:02.751Z,95123.34
2023-03-31T22:56:30.967Z,95165.81
2023-03-31T22:58:59.302Z,95137.06
2023-03-31T23:01:27.564Z,95126.94
2023-03-31T23:03:57.258Z,95138.97
2023-03-31T23:06:25.606Z,95108.91
2023-03-31T23:08:54.384Z,95174.75
2023-03-31T23:11:22.983Z,95197.41
2023-03-31T23:13:51.556Z,95167.41
2023-03-31T23:16:22.542Z,95154.44
2023-03-31T23:18:52.910Z,95192.72
2023-03-31T23:21:25.705Z,95144.69
2023-03-31T23:23:57.364Z,95140.50
2023-03-31T23:26:27.856Z,95139.44
2023-03-31T23:28:57.343Z,95197.47
2023-03-31T23:31:28.428Z,95098.78
2023-03-31T23:33:57.955Z,95157.13
2023-03-31T23:36:28.420Z,95172.94
2023-03-31T23:38:58.300Z,95160.09
2023-03-31T23:41:27.572Z,95087.41
2023-03-31T23:43:57.617Z,95117.28
2023-03-31T23:46:26.499Z,95125.34
2023-03-31T23:48:55.036Z,95166.69
2023-03-31T23:51:23.191Z,95135.09
2023-03-31T23:53:53.100Z,95047.06
2023-03-31T23:56:28.400Z,95060.59
2023-03-31T23:58:56.627Z,95138.53
